createdAt,value
2018-09-10T00:01:10.455Z,5.20
2018-09-10T00:03:39.457Z,4.80
2018-09-10T00:06:08.424Z,5.50
2018-09-10T00:08:37.390Z,5.33
2018-09-10T00:11:07.036Z,5.57
2018-09-10T00:13:36.118Z,5.27
2018-09-10T00:16:05.300Z,5.50
2018-09-10T00:18:34.368Z,5.10
2018-09-10T00:21:03.395Z,5.37
2018-09-10T00:23:32.441Z,5.63
2018-09-10T00:26:01.781Z,5.57
2018-09-10T00:28:30.819Z,5.80
2018-09-10T00:31:00.185Z,4.90
2018-09-10T00:33:29.204Z,5.60
2018-09-10T00:35:58.152Z,5.70
2018-09-10T00:38:27.130Z,5.87
2018-09-10T00:40:56.227Z,5.40
2018-09-10T00:43:25.251Z,5.60
2018-09-10T00:45:54.241Z,5.90
2018-09-10T00:48:23.282Z,5.17
2018-09-10T00:50:52.241Z,5.70
2018-09-10T00:53:21.247Z,5.60
2018-09-10T00:55:50.424Z,5.67
2018-09-10T00:58:19.407Z,5.53
2018-09-10T01:00:48.370Z,5.60
2018-09-10T01:03:17.326Z,5.80
2018-09-10T01:05:46.300Z,4.90
2018-09-10T01:08:15.322Z,4.93
2018-09-10T01:10:44.299Z,5.10
2018-09-10T01:13:13.328Z,4.50
2018-09-10T01:15:42.334Z,4.13
2018-09-10T01:18:11.300Z,4.30
2018-09-10T01:20:40.285Z,3.87
2018-09-10T01:23:09.311Z,4.30
2018-09-10T01:25:38.398Z,4.13
2018-09-10T01:28:07.446Z,4.00
2018-09-10T01:30:36.467Z,3.90
2018-09-10T01:33:10.048Z,4.60
2018-09-10T01:35:39.230Z,3.97
2018-09-10T01:38:08.204Z,4.20
2018-09-10T01:40:37.199Z,3.57
2018-09-10T01:43:06.186Z,4.13
2018-09-10T01:45:35.213Z,3.90
2018-09-10T01:48:04.198Z,4.00
2018-09-10T01:50:33.175Z,4.33
2018-09-10T01:53:02.182Z,3.90
2018-09-10T01:55:31.225Z,3.80
2018-09-10T01:58:00.463Z,3.80
2018-09-10T02:00:29.443Z,4.10
2018-09-10T02:02:58.420Z,3.40
2018-09-10T02:05:27.416Z,3.37
2018-09-10T02:07:56.511Z,3.73
2018-09-10T02:10:25.474Z,3.57
2018-09-10T02:12:54.514Z,4.03
2018-09-10T02:15:23.467Z,4.20
2018-09-10T02:17:52.473Z,3.60
2018-09-10T02:20:21.498Z,3.87
2018-09-10T02:22:50.430Z,3.60
2018-09-10T02:25:19.418Z,3.60
2018-09-10T02:27:48.404Z,3.83
2018-09-10T02:30:17.337Z,3.53
2018-09-10T02:32:46.321Z,3.20
2018-09-10T02:35:15.367Z,3.50
2018-09-10T02:37:44.373Z,3.23
2018-09-10T02:40:13.355Z,3.57
2018-09-10T02:42:42.337Z,3.47
2018-09-10T02:45:11.329Z,3.70
2018-09-10T02:47:40.355Z,3.63
2018-09-10T02:50:09.360Z,3.40
2018-09-10T02:52:38.929Z,3.37
2018-09-10T02:55:08.024Z,3.80
2018-09-10T02:57:37.453Z,3.53
2018-09-10T03:00:07.949Z,3.37
2018-09-10T03:02:36.891Z,3.40
2018-09-10T03:05:06.168Z,3.67
2018-09-10T03:07:35.487Z,3.23
2018-09-10T03:10:04.596Z,3.70
2018-09-10T03:12:33.600Z,3.47
2018-09-10T03:15:02.554Z,3.40
2018-09-10T03:17:31.665Z,3.50
2018-09-10T03:20:00.624Z,3.27
2018-09-10T03:22:29.765Z,3.07
2018-09-10T03:24:58.794Z,2.80
2018-09-10T03:27:27.830Z,3.37
2018-09-10T03:29:56.798Z,3.90
2018-09-10T03:32:25.842Z,3.53
2018-09-10T03:34:54.856Z,3.40
2018-09-10T03:37:24.472Z,3.70
2018-09-10T03:39:53.536Z,4.20
2018-09-10T03:42:22.541Z,3.53
2018-09-10T03:44:51.578Z,6.20
2018-09-10T03:47:20.614Z,10.90
2018-09-10T03:49:49.633Z,15.97
2018-09-10T03:52:18.673Z,10.53
2018-09-10T03:54:47.684Z,7.90
2018-09-10T03:57:16.763Z,5.27
2018-09-10T03:59:45.768Z,4.23
2018-09-10T04:02:14.807Z,4.43
2018-09-10T04:04:43.835Z,3.93
2018-09-10T04:07:12.895Z,3.90
2018-09-10T04:09:41.855Z,4.00
2018-09-10T04:12:10.843Z,4.47
2018-09-10T04:14:40.199Z,3.87
2018-09-10T04:17:09.225Z,3.90
2018-09-10T04:19:38.227Z,4.20
2018-09-10T04:22:07.203Z,3.60
2018-09-10T04:24:36.207Z,3.70
2018-09-10T04:27:05.263Z,4.00
2018-09-10T04:29:34.210Z,3.90
2018-09-10T04:32:04.016Z,3.57
2018-09-10T04:34:33.636Z,4.50
2018-09-10T04:37:02.614Z,3.90
2018-09-10T04:39:31.576Z,4.10
2018-09-10T04:42:00.562Z,3.97
2018-09-10T04:44:29.518Z,3.80
2018-09-10T04:46:58.510Z,4.23
2018-09-10T04:49:27.528Z,4.13
2018-09-10T04:51:56.501Z,4.17
2018-09-10T04:54:25.547Z,3.37
2018-09-10T04:56:54.600Z,3.80
2018-09-10T04:59:23.622Z,4.00
2018-09-10T05:01:52.659Z,4.37
2018-09-10T05:04:21.758Z,4.30
2018-09-10T05:06:50.723Z,4.00
2018-09-10T05:09:19.923Z,4.07
2018-09-10T05:11:59.799Z,4.20
2018-09-10T05:14:28.843Z,3.80
2018-09-10T05:16:57.845Z,3.90
2018-09-10T05:19:26.889Z,4.03
2018-09-10T05:21:55.883Z,4.07
2018-09-10T05:24:24.899Z,4.27
2018-09-10T05:26:53.923Z,4.60
2018-09-10T05:29:22.985Z,5.10
2018-09-10T05:31:51.940Z,4.77
2018-09-10T05:34:21.121Z,5.77
2018-09-10T05:36:50.306Z,5.23
2018-09-10T05:39:19.335Z,6.37
2018-09-10T05:41:48.457Z,5.90
2018-09-10T05:44:17.456Z,5.33
2018-09-10T05:46:46.616Z,5.53
2018-09-10T05:49:15.645Z,5.27
2018-09-10T05:51:44.790Z,5.70
2018-09-10T05:54:13.914Z,5.83
2018-09-10T05:56:42.987Z,5.77
2018-09-10T05:59:13.081Z,6.10
2018-09-10T06:01:42.307Z,6.73
2018-09-10T06:04:11.375Z,5.50
2018-09-10T06:06:40.593Z,6.50
2018-09-10T06:09:09.667Z,6.43
2018-09-10T06:11:38.801Z,6.40
2018-09-10T06:14:07.972Z,6.73
2018-09-10T06:16:37.236Z,5.63
2018-09-10T06:19:06.378Z,6.30
2018-09-10T06:21:35.491Z,5.73
2018-09-10T06:24:04.750Z,5.70
2018-09-10T06:26:33.785Z,5.80
2018-09-10T06:29:03.073Z,5.80
2018-09-10T06:31:32.172Z,5.50
2018-09-10T06:34:01.352Z,5.20
2018-09-10T06:36:30.653Z,4.17
2018-09-10T06:39:00.893Z,4.73
2018-09-10T06:41:30.261Z,4.63
2018-09-10T06:43:59.713Z,4.40
2018-09-10T06:46:28.828Z,4.30
2018-09-10T06:48:57.910Z,4.92
2018-09-10T06:51:28.468Z,4.33
2018-09-10T06:53:57.886Z,4.20
2018-09-10T06:56:27.092Z,3.90
2018-09-10T06:58:56.196Z,4.07
2018-09-10T07:01:25.358Z,3.62
2018-09-10T07:03:54.304Z,3.70
2018-09-10T07:06:23.363Z,3.37
2018-09-10T07:08:52.723Z,3.60
2018-09-10T07:11:21.791Z,3.58
2018-09-10T07:13:50.851Z,3.15
2018-09-10T07:16:19.810Z,2.90
2018-09-10T07:18:48.873Z,3.17
2018-09-10T07:21:17.971Z,3.10
2018-09-10T07:23:47.027Z,3.02
2018-09-10T07:26:16.577Z,2.83
2018-09-10T07:28:45.545Z,2.87
2018-09-10T07:31:15.189Z,2.95
2018-09-10T07:33:44.354Z,2.50
2018-09-10T07:36:13.350Z,2.65
2018-09-10T07:38:42.337Z,2.55
2018-09-10T07:41:11.431Z,2.65
2018-09-10T07:43:40.454Z,2.37
2018-09-10T07:46:10.081Z,2.85
2018-09-10T07:48:39.122Z,2.30
2018-09-10T07:51:08.180Z,2.45
2018-09-10T07:53:37.168Z,2.42
2018-09-10T07:56:06.164Z,2.50
2018-09-10T07:58:35.269Z,2.02
2018-09-10T08:01:04.294Z,2.40
2018-09-10T08:03:33.259Z,2.10
2018-09-10T08:06:02.278Z,2.20
2018-09-10T08:08:31.334Z,2.25
2018-09-10T08:11:00.358Z,1.77
2018-09-10T08:13:29.310Z,2.25
2018-09-10T08:15:58.321Z,2.10
2018-09-10T08:18:27.755Z,1.98
2018-09-10T08:20:56.719Z,2.05
2018-09-10T08:23:25.678Z,2.22
2018-09-10T08:25:54.864Z,2.08
2018-09-10T08:28:23.877Z,2.30
2018-09-10T08:30:52.914Z,2.40
2018-09-10T08:33:21.850Z,2.22
2018-09-10T08:35:50.864Z,2.08
2018-09-10T08:38:19.943Z,2.20
2018-09-10T08:40:49.005Z,2.42
2018-09-10T08:43:18.023Z,2.30
2018-09-10T08:45:46.995Z,1.95
2018-09-10T08:48:16.029Z,1.90
2018-09-10T08:50:44.969Z,2.60
2018-09-10T08:53:14.641Z,2.30
2018-09-10T08:55:44.327Z,1.62
2018-09-10T08:58:13.179Z,1.95
2018-09-10T09:00:42.195Z,1.92
2018-09-10T09:03:11.400Z,2.00
2018-09-10T09:05:40.438Z,1.90
2018-09-10T09:08:09.922Z,1.57
2018-09-10T09:10:38.982Z,1.70
2018-09-10T09:13:07.982Z,1.90
2018-09-10T09:15:37.003Z,2.02
2018-09-10T09:18:05.957Z,2.22
2018-09-10T09:20:35.010Z,2.10
2018-09-10T09:23:04.117Z,1.75
2018-09-10T09:25:33.090Z,1.90
2018-09-10T09:28:02.065Z,2.10
2018-09-10T09:30:31.025Z,1.87
2018-09-10T09:33:00.052Z,2.08
2018-09-10T09:35:35.274Z,2.08
2018-09-10T09:38:09.622Z,1.90
2018-09-10T09:40:43.878Z,2.50
2018-09-10T09:43:18.335Z,2.30
2018-09-10T09:45:52.730Z,1.98
2018-09-10T09:48:21.661Z,1.70
2018-09-10T09:50:50.663Z,2.35
2018-09-10T09:53:19.643Z,2.00
2018-09-10T09:55:48.665Z,2.20
2018-09-10T09:58:17.662Z,2.27
2018-09-10T10:00:52.184Z,1.92
2018-09-10T10:03:26.813Z,1.92
2018-09-10T10:05:55.879Z,1.72
2018-09-10T10:08:25.017Z,2.02
2018-09-10T10:10:53.951Z,2.40
2018-09-10T10:13:23.351Z,1.87
2018-09-10T10:15:54.099Z,1.82
2018-09-10T10:18:23.110Z,1.90
2018-09-10T10:20:52.237Z,2.25
2018-09-10T10:23:21.290Z,1.98
2018-09-10T10:25:50.353Z,1.80
2018-09-10T10:28:19.393Z,2.08
2018-09-10T10:30:48.379Z,1.57
2018-09-10T10:33:17.538Z,2.70
2018-09-10T10:35:46.568Z,2.65
2018-09-10T10:38:16.725Z,1.67
2018-09-10T10:40:45.814Z,1.80
2018-09-10T10:43:14.948Z,1.92
2018-09-10T10:45:43.996Z,1.85
2018-09-10T10:48:13.208Z,1.75
2018-09-10T10:50:42.278Z,1.67
2018-09-10T10:53:11.245Z,1.50
2018-09-10T10:55:40.349Z,1.85
2018-09-10T10:58:09.327Z,1.90
2018-09-10T11:00:38.447Z,1.50
2018-09-10T11:03:07.472Z,2.10
2018-09-10T11:05:37.015Z,1.90
2018-09-10T11:08:06.151Z,1.85
2018-09-10T11:10:35.181Z,1.85
2018-09-10T11:13:04.234Z,1.75
2018-09-10T11:15:33.317Z,1.50
2018-09-10T11:18:02.283Z,1.77
2018-09-10T11:20:31.285Z,1.82
2018-09-10T11:23:00.411Z,1.60
2018-09-10T11:25:29.483Z,1.98
2018-09-10T11:27:58.729Z,1.80
2018-09-10T11:30:28.283Z,1.90
2018-09-10T11:32:57.317Z,1.75
2018-09-10T11:35:26.327Z,2.02
2018-09-10T11:37:55.308Z,1.90
2018-09-10T11:40:24.352Z,1.90
2018-09-10T11:42:53.284Z,1.60
2018-09-10T11:45:22.800Z,1.72
2018-09-10T11:47:51.773Z,1.85
2018-09-10T11:50:20.776Z,1.77
2018-09-10T11:52:49.763Z,1.82
2018-09-10T11:55:18.751Z,2.20
2018-09-10T11:57:47.796Z,2.00
2018-09-10T12:00:17.007Z,2.22
2018-09-10T12:02:46.011Z,1.80
2018-09-10T12:05:15.466Z,1.92
2018-09-10T12:07:44.510Z,1.75
2018-09-10T12:10:13.493Z,1.57
2018-09-10T12:12:42.528Z,1.60
2018-09-10T12:15:11.553Z,1.50
2018-09-10T12:17:40.555Z,1.60
2018-09-10T12:20:09.562Z,1.65
2018-09-10T12:22:38.518Z,1.92
2018-09-10T12:25:07.621Z,1.70
2018-09-10T12:27:36.674Z,1.87
2018-09-10T12:30:05.675Z,1.80
2018-09-10T12:32:34.778Z,2.55
2018-09-10T12:35:03.730Z,1.65
2018-09-10T12:37:32.799Z,1.45
2018-09-10T12:40:01.807Z,1.62
2018-09-10T12:42:31.035Z,2.60
2018-09-10T12:45:00.007Z,1.80
2018-09-10T12:47:29.050Z,2.15
2018-09-10T12:49:58.047Z,1.85
2018-09-10T12:52:27.068Z,1.90
2018-09-10T12:54:56.012Z,1.75
2018-09-10T12:57:25.092Z,1.77
2018-09-10T12:59:54.098Z,1.57
2018-09-10T13:02:23.120Z,1.70
2018-09-10T13:04:52.157Z,2.35
2018-09-10T13:07:21.267Z,1.85
2018-09-10T13:09:50.331Z,1.85
2018-09-10T13:12:19.437Z,2.12
2018-09-10T13:14:48.420Z,1.70
2018-09-10T13:17:17.541Z,2.00
2018-09-10T13:19:46.556Z,1.70
2018-09-10T13:22:15.582Z,1.95
2018-09-10T13:24:44.575Z,2.30
2018-09-10T13:27:14.259Z,1.60
2018-09-10T13:29:43.521Z,1.60
2018-09-10T13:32:12.743Z,1.72
2018-09-10T13:34:41.753Z,1.82
2018-09-10T13:37:11.098Z,1.55
2018-09-10T13:39:40.131Z,1.57
2018-09-10T13:42:09.593Z,1.60
2018-09-10T13:44:38.909Z,1.62
2018-09-10T13:47:08.582Z,1.77
2018-09-10T13:49:37.809Z,2.08
2018-09-10T13:52:07.289Z,1.62
2018-09-10T13:54:36.531Z,2.15
2018-09-10T13:57:05.642Z,1.75
2018-09-10T13:59:35.765Z,1.80
2018-09-10T14:02:05.028Z,1.72
2018-09-10T14:04:34.327Z,1.85
2018-09-10T14:07:03.417Z,1.40
2018-09-10T14:09:32.933Z,1.75
2018-09-10T14:12:02.013Z,1.60
2018-09-10T14:14:31.427Z,1.77
2018-09-10T14:17:00.598Z,1.75
2018-09-10T14:19:29.898Z,1.80
2018-09-10T14:21:58.934Z,1.87
2018-09-10T14:24:28.103Z,1.65
2018-09-10T14:26:57.269Z,2.00
2018-09-10T14:29:26.684Z,1.77
2018-09-10T14:31:55.900Z,2.40
2018-09-10T14:34:25.147Z,2.25
2018-09-10T14:36:54.503Z,1.80
2018-09-10T14:39:23.445Z,2.30
2018-09-10T14:41:52.512Z,2.08
2018-09-10T14:44:22.147Z,2.30
2018-09-10T14:46:52.519Z,2.17
2018-09-10T14:49:21.871Z,4.10
2018-09-10T14:51:51.088Z,2.17
2018-09-10T14:54:20.386Z,1.87
2018-09-10T14:56:51.160Z,1.62
2018-09-10T14:59:20.302Z,2.05
2018-09-10T15:01:49.425Z,2.10
2018-09-10T15:04:18.575Z,1.92
2018-09-10T15:06:47.533Z,1.85
2018-09-10T15:09:16.696Z,2.00
2018-09-10T15:11:45.760Z,1.82
2018-09-10T15:14:15.214Z,2.12
2018-09-10T15:16:44.418Z,1.95
2018-09-10T15:19:13.533Z,2.00
2018-09-10T15:21:42.547Z,1.87
2018-09-10T15:24:11.928Z,1.90
2018-09-10T15:26:40.905Z,2.27
2018-09-10T15:29:10.075Z,2.52
2018-09-10T15:31:39.231Z,2.62
2018-09-10T15:34:09.785Z,2.02
2018-09-10T15:36:39.505Z,2.20
2018-09-10T15:40:11.545Z,2.20
2018-09-10T15:42:40.547Z,2.90
2018-09-10T15:45:10.553Z,2.42
2018-09-10T15:47:39.758Z,2.12
2018-09-10T15:50:08.874Z,2.92
2018-09-10T15:52:37.869Z,2.67
2018-09-10T15:55:07.192Z,2.80
2018-09-10T15:57:36.447Z,2.40
2018-09-10T16:00:05.543Z,2.00
2018-09-10T16:02:34.550Z,2.05
2018-09-10T16:05:03.548Z,3.10
2018-09-10T16:07:32.714Z,2.83
2018-09-10T16:10:01.748Z,2.95
2018-09-10T16:12:31.654Z,2.22
2018-09-10T16:15:00.661Z,5.00
2018-09-10T16:17:29.710Z,3.12
2018-09-10T16:19:59.034Z,3.87
2018-09-10T16:22:28.134Z,3.10
2018-09-10T16:24:57.110Z,3.10
2018-09-10T16:27:26.117Z,3.40
2018-09-10T16:29:55.166Z,3.40
2018-09-10T16:32:24.315Z,3.70
2018-09-10T16:34:54.583Z,3.15
2018-09-10T16:37:23.699Z,3.17
2018-09-10T16:39:52.808Z,2.70
2018-09-10T16:42:22.146Z,5.30
2018-09-10T16:44:51.203Z,4.40
2018-09-10T16:47:20.195Z,4.17
2018-09-10T16:49:49.368Z,2.90
2018-09-10T16:52:18.416Z,3.58
2018-09-10T16:54:47.610Z,2.85
2018-09-10T16:57:24.375Z,3.65
2018-09-10T16:59:53.396Z,2.80
2018-09-10T17:02:23.226Z,3.17
2018-09-10T17:04:54.199Z,2.83
2018-09-10T17:07:23.212Z,5.87
2018-09-10T17:09:52.178Z,3.00
2018-09-10T17:12:21.213Z,2.77
2018-09-10T17:14:50.244Z,2.50
2018-09-10T17:17:19.240Z,2.80
2018-09-10T17:19:48.294Z,3.47
2018-09-10T17:22:17.356Z,2.85
2018-09-10T17:24:46.377Z,2.58
2018-09-10T17:27:15.422Z,2.65
2018-09-10T17:29:44.399Z,2.33
2018-09-10T17:32:13.465Z,2.60
2018-09-10T17:34:42.637Z,3.42
2018-09-10T17:37:11.655Z,3.08
2018-09-10T17:39:40.678Z,3.05
2018-09-10T17:42:09.602Z,2.83
2018-09-10T17:44:38.578Z,2.50
2018-09-10T17:47:07.727Z,2.87
2018-09-10T17:49:36.759Z,2.55
2018-09-10T17:52:06.027Z,2.50
2018-09-10T17:54:35.143Z,2.40
2018-09-10T17:57:04.126Z,2.90
2018-09-10T17:59:33.231Z,3.12
2018-09-10T18:02:02.332Z,3.17
2018-09-10T18:04:31.395Z,3.10
2018-09-10T18:07:00.395Z,3.30
2018-09-10T18:09:29.533Z,3.30
2018-09-10T18:11:58.605Z,2.85
2018-09-10T18:14:27.626Z,3.40
2018-09-10T18:16:56.711Z,3.12
2018-09-10T18:19:26.852Z,3.50
2018-09-10T18:21:55.830Z,3.92
2018-09-10T18:24:27.048Z,4.08
2018-09-10T18:26:57.496Z,4.00
2018-09-10T18:29:27.318Z,3.17
2018-09-10T18:31:56.666Z,3.37
2018-09-10T18:34:25.630Z,3.22
2018-09-10T18:36:54.854Z,3.40
2018-09-10T18:39:23.947Z,3.72
2018-09-10T18:41:52.984Z,3.50
2018-09-10T18:44:22.863Z,4.40
2018-09-10T18:46:51.887Z,3.47
2018-09-10T18:49:20.841Z,3.65
2018-09-10T18:51:49.969Z,3.40
2018-09-10T18:54:18.986Z,3.80
2018-09-10T18:56:48.960Z,3.47
2018-09-10T18:59:21.251Z,3.98
2018-09-10T19:01:57.079Z,3.37
2018-09-10T19:04:28.163Z,3.80
2018-09-10T19:06:59.533Z,3.33
2018-09-10T19:09:28.637Z,3.02
2018-09-10T19:11:57.679Z,3.55
2018-09-10T19:14:26.719Z,3.52
2018-09-10T19:16:55.801Z,3.42
2018-09-10T19:19:25.119Z,3.70
2018-09-10T19:21:54.143Z,3.77
2018-09-10T19:24:23.130Z,4.30
2018-09-10T19:26:54.572Z,3.50
2018-09-10T19:29:23.647Z,3.30
2018-09-10T19:31:52.644Z,4.85
2018-09-10T19:34:21.900Z,4.67
2018-09-10T19:36:51.209Z,4.30
2018-09-10T19:39:20.164Z,3.95
2018-09-10T19:41:49.221Z,4.25
2018-09-10T19:44:18.223Z,3.90
2018-09-10T19:46:47.250Z,4.08
2018-09-10T19:49:16.193Z,4.28
2018-09-10T19:51:45.252Z,3.75
2018-09-10T19:57:03.110Z,3.33
2018-09-10T19:59:32.165Z,3.47
2018-09-10T20:02:01.129Z,3.27
2018-09-10T20:04:30.248Z,3.27
2018-09-10T20:06:59.247Z,4.55
2018-09-10T20:09:28.325Z,4.25
2018-09-10T20:11:57.262Z,4.37
2018-09-10T20:14:27.031Z,3.67
2018-09-10T20:16:56.262Z,3.80
2018-09-10T20:19:25.315Z,3.52
2018-09-10T20:22:03.007Z,3.47
2018-09-10T20:24:40.364Z,4.55
2018-09-10T20:27:20.683Z,3.95
2018-09-10T20:29:54.669Z,4.03
2018-09-10T20:32:28.827Z,3.83
2018-09-10T20:35:03.303Z,3.95
2018-09-10T20:37:41.251Z,4.12
2018-09-10T20:40:12.878Z,4.45
2018-09-10T20:42:45.209Z,4.45
2018-09-10T20:45:20.593Z,3.60
2018-09-10T20:48:00.072Z,3.42
2018-09-10T20:50:29.188Z,4.03
2018-09-10T20:52:58.260Z,4.25
2018-09-10T20:55:27.277Z,4.20
2018-09-10T20:57:56.295Z,3.80
2018-09-10T21:00:25.302Z,3.22
2018-09-10T21:02:54.454Z,4.00
2018-09-10T21:05:23.790Z,4.20
2018-09-10T21:07:53.237Z,3.65
2018-09-10T21:10:22.606Z,4.22
2018-09-10T21:12:52.406Z,3.80
2018-09-10T21:15:21.588Z,3.40
2018-09-10T21:17:50.666Z,3.55
2018-09-10T21:20:20.837Z,4.08
2018-09-10T21:22:50.256Z,4.00
2018-09-10T21:25:19.492Z,4.10
2018-09-10T21:27:48.500Z,3.55
2018-09-10T21:30:18.934Z,3.60
2018-09-10T21:32:48.579Z,3.25
2018-09-10T22:20:33.085Z,3.42
2018-09-10T22:23:04.831Z,3.27
2018-09-10T22:28:09.112Z,3.50
2018-09-10T22:30:38.623Z,3.08
2018-09-10T22:33:11.967Z,3.10
2018-09-10T22:35:41.151Z,3.65
2018-09-10T22:38:13.981Z,3.30
2018-09-10T22:40:43.063Z,3.62
2018-09-10T22:43:15.425Z,3.10
2018-09-10T22:48:32.460Z,3.22
2018-09-10T22:51:02.294Z,3.10
2018-09-10T22:53:31.676Z,3.22
2018-09-10T22:56:08.893Z,3.12
2018-09-10T22:58:38.094Z,3.20
2018-09-10T23:01:07.181Z,3.00
2018-09-10T23:03:42.010Z,3.30
2018-09-10T23:06:11.124Z,3.22
2018-09-10T23:08:44.148Z,3.15
2018-09-10T23:11:13.554Z,3.55
2018-09-10T23:13:42.630Z,3.20
2018-09-10T23:16:11.722Z,3.25
2018-09-10T23:18:40.804Z,3.25
2018-09-10T23:21:09.982Z,3.10
2018-09-10T23:23:40.202Z,2.85
2018-09-10T23:26:09.298Z,3.35
2018-09-10T23:28:38.476Z,2.77
2018-09-10T23:31:07.650Z,2.87
2018-09-10T23:33:36.794Z,3.02
2018-09-10T23:36:06.075Z,3.10
2018-09-10T23:38:35.020Z,2.83
2018-09-10T23:41:04.189Z,3.13
2018-09-10T23:43:33.183Z,3.37
2018-09-10T23:46:02.246Z,3.45
2018-09-10T23:48:31.235Z,3.15
2018-09-10T23:51:00.325Z,3.12
2018-09-10T23:53:29.628Z,3.35
2018-09-10T23:55:58.820Z,2.73
2018-09-10T23:58:28.063Z,3.22
